Flugplatz Mühldorf (EDMY)

Hier findest Du alle Informationen zum Flugplatz Mühldorf (EDMY).

Informationen für Piloten zum Flugplatz Mühldorf

Hier findest Du alle relevanten Informationen, die Du als Pilot benötigst, um Mühldorf anzufliegen.

Flugplatz: Mühldorf ICAO-Code: EDMY
Frequenz Turm: 119,775 Mhz GAFOR Gebiet: 74
Frequenz Ground: 119,775 Mhz Mogas: ja
Platzrunde: N 2500 ft Landegebühr: -
Platzhöhe: - Sunrise: 05:02 Uhr UTC
Pisten: 08/26 - 773 m x 20 m, ASPH Sunset: 16:59 Uhr UTC

Flugwetter am Flugplatz Mühldorf

Die METAR Information stammen aus EDDM (53.71 km entfernt).

METAR Code:
2022/09/26 11:50
EDDM 261150Z AUTO 21005KT 170V290 9999 VCSH FEW023 FEW///CB 13/10 Q1008 RESHRA TEMPO 4000 SHRA

Temperatur: 9,2 °C Niederschlag: 2,5 mm (1h) Wind: 10,9 kt (max.: 23,4 kt in Böen)
Temperatur (min.): 7,7 °C Luftdruck: 1001 hPa Windrichtung: 246 °
Temperatur (max.): 11,0 °C Luftfeuchtigkeit: 91 % Bewölkung: 8/8

Flugschulen am Flugplatz Mühldorf

Am Flugplatz Mühldorf gibt es 3 Flugschulen.

Benachbarte Flugplätze und Flugschulen

Es gibt 15 weitere Flugplätze in einem Umkreis von 50 km um den Flugplatz Mühldorf.

Jetzt anmelden

Passwort vergessen

Umfrage Archiv

Sendet Ihr ADS-B und/oder FLARM?

Ja
83.8 %
Nein
16.2 %
Stimmen: 222 | Diskussion
Anzeige: Roland Aircraft
Statistik Alle Mitglieder

Aktuell sind 47 Besucher online, davon 2 Mitglieder und 45 Gäste.


Mitglieder online:
MISC  Nordex 

Anzeige: ULPower Aero Engines Anzeige: Pocket FMS